sensor_id;sensor_type;location;lat;lon;timestamp;P1;durP1;ratioP1;P2;durP2;ratioP2
56419;SDS011;42323;52.170;7.538;2024-01-07T00:00:16;232.88;;;213.23;;
56419;SDS011;42323;52.170;7.538;2024-01-07T00:02:42;223.25;;;205.15;;
56419;SDS011;42323;52.170;7.538;2024-01-07T00:05:09;221.18;;;203.32;;
56419;SDS011;42323;52.170;7.538;2024-01-07T00:07:35;238.07;;;217.77;;
56419;SDS011;42323;52.170;7.538;2024-01-07T00:10:02;237.38;;;217.50;;
56419;SDS011;42323;52.170;7.538;2024-01-07T00:12:29;236.65;;;217.63;;
56419;SDS011;42323;52.170;7.538;2024-01-07T00:14:55;246.30;;;226.10;;
56419;SDS011;42323;52.170;7.538;2024-01-07T00:17:22;237.45;;;218.45;;
56419;SDS011;42323;52.170;7.538;2024-01-07T00:19:48;240.23;;;220.95;;
56419;SDS011;42323;52.170;7.538;2024-01-07T00:22:15;240.88;;;219.73;;
56419;SDS011;42323;52.170;7.538;2024-01-07T00:24:41;237.57;;;218.10;;
56419;SDS011;42323;52.170;7.538;2024-01-07T00:27:08;233.60;;;214.77;;
56419;SDS011;42323;52.170;7.538;2024-01-07T00:29:37;239.23;;;219.25;;
56419;SDS011;42323;52.170;7.538;2024-01-07T00:32:03;236.52;;;217.45;;
56419;SDS011;42323;52.170;7.538;2024-01-07T00:34:30;233.93;;;214.45;;
56419;SDS011;42323;52.170;7.538;2024-01-07T00:36:56;234.35;;;215.00;;
56419;SDS011;42323;52.170;7.538;2024-01-07T00:39:23;240.27;;;219.73;;
56419;SDS011;42323;52.170;7.538;2024-01-07T00:41:49;240.15;;;219.50;;
56419;SDS011;42323;52.170;7.538;2024-01-07T00:44:16;321.08;;;227.23;;
56419;SDS011;42323;52.170;7.538;2024-01-07T00:46:42;234.35;;;213.38;;
56419;SDS011;42323;52.170;7.538;2024-01-07T00:49:13;227.10;;;207.75;;
56419;SDS011;42323;52.170;7.538;2024-01-07T00:51:39;223.13;;;204.80;;
56419;SDS011;42323;52.170;7.538;2024-01-07T00:54:06;224.07;;;205.75;;
56419;SDS011;42323;52.170;7.538;2024-01-07T00:56:32;222.73;;;204.45;;
56419;SDS011;42323;52.170;7.538;2024-01-07T00:58:59;227.05;;;208.80;;
56419;SDS011;42323;52.170;7.538;2024-01-07T01:01:25;225.10;;;205.60;;
56419;SDS011;42323;52.170;7.538;2024-01-07T01:03:52;227.45;;;208.65;;
56419;SDS011;42323;52.170;7.538;2024-01-07T01:06:19;225.90;;;206.65;;
56419;SDS011;42323;52.170;7.538;2024-01-07T01:08:45;229.60;;;209.93;;
56419;SDS011;42323;52.170;7.538;2024-01-07T01:11:12;227.63;;;207.88;;
56419;SDS011;42323;52.170;7.538;2024-01-07T01:13:38;231.20;;;211.40;;
56419;SDS011;42323;52.170;7.538;2024-01-07T01:16:05;226.68;;;206.82;;
56419;SDS011;42323;52.170;7.538;2024-01-07T01:18:31;227.93;;;209.00;;
56419;SDS011;42323;52.170;7.538;2024-01-07T01:20:58;226.55;;;208.52;;
56419;SDS011;42323;52.170;7.538;2024-01-07T01:23:24;226.48;;;207.60;;
56419;SDS011;42323;52.170;7.538;2024-01-07T01:25:51;226.38;;;207.82;;
56419;SDS011;42323;52.170;7.538;2024-01-07T01:28:17;224.90;;;206.88;;
56419;SDS011;42323;52.170;7.538;2024-01-07T01:30:44;221.73;;;204.10;;
56419;SDS011;42323;52.170;7.538;2024-01-07T01:33:10;224.00;;;206.07;;
56419;SDS011;42323;52.170;7.538;2024-01-07T01:35:37;231.32;;;212.60;;
56419;SDS011;42323;52.170;7.538;2024-01-07T01:38:03;241.25;;;219.13;;
56419;SDS011;42323;52.170;7.538;2024-01-07T01:40:30;247.10;;;222.75;;
56419;SDS011;42323;52.170;7.538;2024-01-07T01:42:57;242.30;;;222.25;;
56419;SDS011;42323;52.170;7.538;2024-01-07T01:45:24;238.40;;;219.27;;
56419;SDS011;42323;52.170;7.538;2024-01-07T01:47:50;240.70;;;221.00;;
56419;SDS011;42323;52.170;7.538;2024-01-07T01:50:17;351.27;;;252.25;;
56419;SDS011;42323;52.170;7.538;2024-01-07T01:52:44;249.07;;;228.80;;
56419;SDS011;42323;52.170;7.538;2024-01-07T01:55:11;242.63;;;221.70;;
56419;SDS011;42323;52.170;7.538;2024-01-07T01:57:38;274.40;;;251.20;;
56419;SDS011;42323;52.170;7.538;2024-01-07T02:00:06;256.67;;;235.23;;
56419;SDS011;42323;52.170;7.538;2024-01-07T02:02:32;262.67;;;241.35;;
56419;SDS011;42323;52.170;7.538;2024-01-07T02:05:01;266.38;;;244.60;;
56419;SDS011;42323;52.170;7.538;2024-01-07T02:07:29;357.10;;;243.60;;
56419;SDS011;42323;52.170;7.538;2024-01-07T02:09:56;268.13;;;245.20;;
56419;SDS011;42323;52.170;7.538;2024-01-07T02:12:22;266.17;;;244.07;;
56419;SDS011;42323;52.170;7.538;2024-01-07T02:14:49;272.38;;;249.50;;
56419;SDS011;42323;52.170;7.538;2024-01-07T02:17:15;320.30;;;255.15;;
56419;SDS011;42323;52.170;7.538;2024-01-07T02:19:42;277.17;;;255.18;;
56419;SDS011;42323;52.170;7.538;2024-01-07T02:22:09;297.13;;;273.77;;
56419;SDS011;42323;52.170;7.538;2024-01-07T02:24:35;262.25;;;241.30;;
56419;SDS011;42323;52.170;7.538;2024-01-07T02:27:02;281.30;;;259.30;;
56419;SDS011;42323;52.170;7.538;2024-01-07T02:29:29;279.05;;;257.13;;
56419;SDS011;42323;52.170;7.538;2024-01-07T02:31:55;362.42;;;265.45;;
56419;SDS011;42323;52.170;7.538;2024-01-07T02:34:22;268.67;;;246.98;;
56419;SDS011;42323;52.170;7.538;2024-01-07T02:36:48;284.45;;;260.95;;
56419;SDS011;42323;52.170;7.538;2024-01-07T02:39:15;282.45;;;260.55;;
56419;SDS011;42323;52.170;7.538;2024-01-07T02:41:41;286.83;;;263.45;;
56419;SDS011;42323;52.170;7.538;2024-01-07T02:44:08;258.17;;;238.13;;
56419;SDS011;42323;52.170;7.538;2024-01-07T02:46:38;244.45;;;225.55;;
56419;SDS011;42323;52.170;7.538;2024-01-07T02:49:05;242.70;;;223.10;;
56419;SDS011;42323;52.170;7.538;2024-01-07T02:51:31;235.10;;;216.82;;
56419;SDS011;42323;52.170;7.538;2024-01-07T02:53:58;236.68;;;217.35;;
56419;SDS011;42323;52.170;7.538;2024-01-07T02:56:24;234.10;;;215.60;;
56419;SDS011;42323;52.170;7.538;2024-01-07T02:58:50;166.43;;;153.00;;
56419;SDS011;42323;52.170;7.538;2024-01-07T03:01:17;181.52;;;166.38;;
56419;SDS011;42323;52.170;7.538;2024-01-07T03:03:43;179.00;;;164.20;;
56419;SDS011;42323;52.170;7.538;2024-01-07T03:06:10;181.93;;;167.40;;
56419;SDS011;42323;52.170;7.538;2024-01-07T03:08:36;178.18;;;163.65;;
56419;SDS011;42323;52.170;7.538;2024-01-07T03:11:06;168.65;;;155.07;;
56419;SDS011;42323;52.170;7.538;2024-01-07T03:13:32;173.02;;;158.68;;
56419;SDS011;42323;52.170;7.538;2024-01-07T03:15:59;174.50;;;160.75;;
56419;SDS011;42323;52.170;7.538;2024-01-07T03:18:27;172.15;;;158.18;;
56419;SDS011;42323;52.170;7.538;2024-01-07T03:20:54;171.23;;;157.70;;
56419;SDS011;42323;52.170;7.538;2024-01-07T03:23:20;175.73;;;160.07;;
56419;SDS011;42323;52.170;7.538;2024-01-07T03:25:47;167.15;;;153.43;;
56419;SDS011;42323;52.170;7.538;2024-01-07T03:28:13;234.77;;;154.52;;
56419;SDS011;42323;52.170;7.538;2024-01-07T03:30:40;206.95;;;140.63;;
56419;SDS011;42323;52.170;7.538;2024-01-07T03:33:06;154.57;;;141.70;;
56419;SDS011;42323;52.170;7.538;2024-01-07T03:35:33;154.75;;;141.93;;
56419;SDS011;42323;52.170;7.538;2024-01-07T03:37:59;162.23;;;148.43;;
56419;SDS011;42323;52.170;7.538;2024-01-07T03:40:26;187.60;;;135.70;;
56419;SDS011;42323;52.170;7.538;2024-01-07T03:42:52;147.95;;;135.60;;
56419;SDS011;42323;52.170;7.538;2024-01-07T03:45:19;150.50;;;138.15;;
56419;SDS011;42323;52.170;7.538;2024-01-07T03:47:45;162.50;;;149.02;;
56419;SDS011;42323;52.170;7.538;2024-01-07T03:50:11;166.75;;;152.70;;
56419;SDS011;42323;52.170;7.538;2024-01-07T03:52:38;166.13;;;152.60;;
56419;SDS011;42323;52.170;7.538;2024-01-07T03:55:05;168.25;;;154.85;;
56419;SDS011;42323;52.170;7.538;2024-01-07T03:57:31;168.23;;;154.80;;
56419;SDS011;42323;52.170;7.538;2024-01-07T03:59:59;223.40;;;161.75;;
56419;SDS011;42323;52.170;7.538;2024-01-07T04:02:26;238.07;;;160.13;;
56419;SDS011;42323;52.170;7.538;2024-01-07T04:04:52;166.68;;;153.57;;
56419;SDS011;42323;52.170;7.538;2024-01-07T04:07:18;245.27;;;160.68;;
56419;SDS011;42323;52.170;7.538;2024-01-07T04:09:45;172.65;;;158.75;;
56419;SDS011;42323;52.170;7.538;2024-01-07T04:12:11;171.50;;;157.70;;
56419;SDS011;42323;52.170;7.538;2024-01-07T04:14:38;177.82;;;160.02;;
56419;SDS011;42323;52.170;7.538;2024-01-07T04:17:04;174.02;;;160.48;;
56419;SDS011;42323;52.170;7.538;2024-01-07T04:19:31;177.38;;;163.07;;
56419;SDS011;42323;52.170;7.538;2024-01-07T04:21:57;177.82;;;163.90;;
56419;SDS011;42323;52.170;7.538;2024-01-07T04:24:24;186.52;;;171.70;;
56419;SDS011;42323;52.170;7.538;2024-01-07T04:26:50;181.20;;;167.05;;
56419;SDS011;42323;52.170;7.538;2024-01-07T04:29:17;179.68;;;165.50;;
56419;SDS011;42323;52.170;7.538;2024-01-07T04:31:43;178.45;;;164.38;;
56419;SDS011;42323;52.170;7.538;2024-01-07T04:34:10;206.93;;;190.85;;
56419;SDS011;42323;52.170;7.538;2024-01-07T04:36:36;231.43;;;207.75;;
56419;SDS011;42323;52.170;7.538;2024-01-07T04:39:03;218.52;;;201.52;;
56419;SDS011;42323;52.170;7.538;2024-01-07T04:41:30;219.18;;;202.63;;
56419;SDS011;42323;52.170;7.538;2024-01-07T04:43:56;224.20;;;206.02;;
56419;SDS011;42323;52.170;7.538;2024-01-07T04:46:22;222.65;;;204.65;;
56419;SDS011;42323;52.170;7.538;2024-01-07T04:48:49;222.13;;;204.60;;
56419;SDS011;42323;52.170;7.538;2024-01-07T04:51:15;219.50;;;202.70;;
56419;SDS011;42323;52.170;7.538;2024-01-07T04:53:42;218.88;;;202.00;;
56419;SDS011;42323;52.170;7.538;2024-01-07T04:56:08;218.40;;;201.80;;
56419;SDS011;42323;52.170;7.538;2024-01-07T04:58:35;221.35;;;204.35;;
56419;SDS011;42323;52.170;7.538;2024-01-07T05:01:01;218.05;;;201.30;;
56419;SDS011;42323;52.170;7.538;2024-01-07T05:03:28;218.60;;;201.73;;
56419;SDS011;42323;52.170;7.538;2024-01-07T05:05:54;219.00;;;201.90;;
56419;SDS011;42323;52.170;7.538;2024-01-07T05:08:21;222.07;;;204.85;;
56419;SDS011;42323;52.170;7.538;2024-01-07T05:10:52;218.02;;;201.18;;
56419;SDS011;42323;52.170;7.538;2024-01-07T05:13:18;220.45;;;203.48;;
56419;SDS011;42323;52.170;7.538;2024-01-07T05:15:45;309.27;;;213.23;;
56419;SDS011;42323;52.170;7.538;2024-01-07T05:18:13;224.88;;;207.40;;
56419;SDS011;42323;52.170;7.538;2024-01-07T05:20:42;223.90;;;204.70;;
56419;SDS011;42323;52.170;7.538;2024-01-07T05:23:09;299.67;;;210.60;;
56419;SDS011;42323;52.170;7.538;2024-01-07T05:25:36;320.77;;;213.48;;
56419;SDS011;42323;52.170;7.538;2024-01-07T05:28:02;218.45;;;201.15;;
56419;SDS011;42323;52.170;7.538;2024-01-07T05:30:29;224.00;;;205.70;;
56419;SDS011;42323;52.170;7.538;2024-01-07T05:32:56;218.82;;;202.23;;
56419;SDS011;42323;52.170;7.538;2024-01-07T05:35:22;222.43;;;205.13;;
56419;SDS011;42323;52.170;7.538;2024-01-07T05:37:49;214.15;;;197.48;;
56419;SDS011;42323;52.170;7.538;2024-01-07T05:40:15;224.35;;;206.18;;
56419;SDS011;42323;52.170;7.538;2024-01-07T05:42:42;217.30;;;200.50;;
56419;SDS011;42323;52.170;7.538;2024-01-07T05:45:08;219.80;;;202.73;;
56419;SDS011;42323;52.170;7.538;2024-01-07T05:47:35;215.45;;;199.32;;
56419;SDS011;42323;52.170;7.538;2024-01-07T05:50:02;219.88;;;203.30;;
56419;SDS011;42323;52.170;7.538;2024-01-07T05:52:28;224.73;;;207.40;;
56419;SDS011;42323;52.170;7.538;2024-01-07T05:54:54;222.77;;;204.55;;
56419;SDS011;42323;52.170;7.538;2024-01-07T05:57:21;224.18;;;207.25;;
56419;SDS011;42323;52.170;7.538;2024-01-07T05:59:47;220.02;;;203.75;;
56419;SDS011;42323;52.170;7.538;2024-01-07T06:02:18;221.93;;;205.30;;
56419;SDS011;42323;52.170;7.538;2024-01-07T06:04:45;231.38;;;213.15;;
56419;SDS011;42323;52.170;7.538;2024-01-07T06:07:11;227.57;;;210.27;;
56419;SDS011;42323;52.170;7.538;2024-01-07T06:09:38;230.32;;;212.77;;
56419;SDS011;42323;52.170;7.538;2024-01-07T06:12:05;222.50;;;205.73;;
56419;SDS011;42323;52.170;7.538;2024-01-07T06:14:32;226.88;;;210.02;;
56419;SDS011;42323;52.170;7.538;2024-01-07T06:16:58;231.93;;;214.25;;
56419;SDS011;42323;52.170;7.538;2024-01-07T06:19:25;226.35;;;209.38;;
56419;SDS011;42323;52.170;7.538;2024-01-07T06:21:52;224.10;;;207.40;;
56419;SDS011;42323;52.170;7.538;2024-01-07T06:24:19;223.93;;;207.32;;
56419;SDS011;42323;52.170;7.538;2024-01-07T06:26:45;221.88;;;205.60;;
56419;SDS011;42323;52.170;7.538;2024-01-07T06:29:11;223.30;;;206.40;;
56419;SDS011;42323;52.170;7.538;2024-01-07T06:31:44;221.48;;;205.00;;
56419;SDS011;42323;52.170;7.538;2024-01-07T06:34:15;221.02;;;204.57;;
56419;SDS011;42323;52.170;7.538;2024-01-07T06:36:42;217.85;;;201.75;;
56419;SDS011;42323;52.170;7.538;2024-01-07T06:39:08;217.30;;;201.23;;
56419;SDS011;42323;52.170;7.538;2024-01-07T06:41:35;238.70;;;221.02;;
56419;SDS011;42323;52.170;7.538;2024-01-07T06:44:02;239.75;;;221.98;;
56419;SDS011;42323;52.170;7.538;2024-01-07T06:46:28;243.82;;;224.38;;
56419;SDS011;42323;52.170;7.538;2024-01-07T06:48:55;239.85;;;222.05;;
56419;SDS011;42323;52.170;7.538;2024-01-07T06:51:21;237.60;;;218.65;;
56419;SDS011;42323;52.170;7.538;2024-01-07T06:53:48;230.15;;;213.45;;
56419;SDS011;42323;52.170;7.538;2024-01-07T06:56:16;233.23;;;216.35;;
56419;SDS011;42323;52.170;7.538;2024-01-07T06:58:43;234.73;;;217.68;;
56419;SDS011;42323;52.170;7.538;2024-01-07T07:01:10;236.75;;;219.60;;
56419;SDS011;42323;52.170;7.538;2024-01-07T07:03:39;232.13;;;215.63;;
56419;SDS011;42323;52.170;7.538;2024-01-07T07:06:05;246.40;;;228.50;;
56419;SDS011;42323;52.170;7.538;2024-01-07T07:08:32;241.02;;;221.85;;
56419;SDS011;42323;52.170;7.538;2024-01-07T07:11:00;241.60;;;223.90;;
56419;SDS011;42323;52.170;7.538;2024-01-07T07:13:26;254.80;;;228.63;;
56419;SDS011;42323;52.170;7.538;2024-01-07T07:15:53;238.93;;;221.27;;
56419;SDS011;42323;52.170;7.538;2024-01-07T07:18:19;237.50;;;219.95;;
56419;SDS011;42323;52.170;7.538;2024-01-07T07:20:46;248.32;;;230.25;;
56419;SDS011;42323;52.170;7.538;2024-01-07T07:23:12;239.68;;;222.20;;
56419;SDS011;42323;52.170;7.538;2024-01-07T07:25:40;241.43;;;223.85;;
56419;SDS011;42323;52.170;7.538;2024-01-07T07:28:06;240.48;;;223.02;;
56419;SDS011;42323;52.170;7.538;2024-01-07T07:30:32;239.43;;;221.88;;
56419;SDS011;42323;52.170;7.538;2024-01-07T07:32:59;234.88;;;217.63;;
56419;SDS011;42323;52.170;7.538;2024-01-07T07:35:26;242.93;;;224.95;;
56419;SDS011;42323;52.170;7.538;2024-01-07T07:37:52;240.77;;;222.52;;
56419;SDS011;42323;52.170;7.538;2024-01-07T07:40:18;238.90;;;221.63;;
56419;SDS011;42323;52.170;7.538;2024-01-07T07:42:45;233.95;;;216.73;;
56419;SDS011;42323;52.170;7.538;2024-01-07T07:45:11;227.25;;;211.00;;
56419;SDS011;42323;52.170;7.538;2024-01-07T07:47:38;235.38;;;218.57;;
56419;SDS011;42323;52.170;7.538;2024-01-07T07:50:11;228.27;;;212.13;;
56419;SDS011;42323;52.170;7.538;2024-01-07T07:52:37;232.05;;;215.30;;
56419;SDS011;42323;52.170;7.538;2024-01-07T07:55:04;230.40;;;213.80;;
56419;SDS011;42323;52.170;7.538;2024-01-07T07:57:30;228.20;;;211.88;;
56419;SDS011;42323;52.170;7.538;2024-01-07T07:59:57;220.27;;;204.40;;
56419;SDS011;42323;52.170;7.538;2024-01-07T08:02:26;229.73;;;211.93;;
56419;SDS011;42323;52.170;7.538;2024-01-07T08:04:53;225.82;;;209.90;;
56419;SDS011;42323;52.170;7.538;2024-01-07T08:07:19;221.30;;;205.80;;
56419;SDS011;42323;52.170;7.538;2024-01-07T08:09:46;221.52;;;206.10;;
56419;SDS011;42323;52.170;7.538;2024-01-07T08:12:13;221.63;;;206.20;;
56419;SDS011;42323;52.170;7.538;2024-01-07T08:14:39;223.43;;;207.70;;
56419;SDS011;42323;52.170;7.538;2024-01-07T08:17:08;225.05;;;209.25;;
56419;SDS011;42323;52.170;7.538;2024-01-07T08:19:35;224.98;;;207.80;;
56419;SDS011;42323;52.170;7.538;2024-01-07T08:22:02;222.60;;;207.07;;
56419;SDS011;42323;52.170;7.538;2024-01-07T08:24:29;216.18;;;201.00;;
56419;SDS011;42323;52.170;7.538;2024-01-07T08:26:55;223.93;;;207.95;;
56419;SDS011;42323;52.170;7.538;2024-01-07T08:29:22;224.65;;;208.27;;
56419;SDS011;42323;52.170;7.538;2024-01-07T08:31:48;222.27;;;206.23;;
56419;SDS011;42323;52.170;7.538;2024-01-07T08:34:15;220.50;;;205.10;;
56419;SDS011;42323;52.170;7.538;2024-01-07T08:36:42;228.52;;;212.38;;
56419;SDS011;42323;52.170;7.538;2024-01-07T08:39:08;227.13;;;210.50;;
56419;SDS011;42323;52.170;7.538;2024-01-07T08:41:35;225.55;;;209.50;;
56419;SDS011;42323;52.170;7.538;2024-01-07T08:44:01;230.70;;;214.32;;
56419;SDS011;42323;52.170;7.538;2024-01-07T08:46:31;230.63;;;214.00;;
56419;SDS011;42323;52.170;7.538;2024-01-07T08:49:01;233.70;;;217.27;;
56419;SDS011;42323;52.170;7.538;2024-01-07T08:51:28;231.07;;;214.73;;
56419;SDS011;42323;52.170;7.538;2024-01-07T08:53:58;237.10;;;219.07;;
56419;SDS011;42323;52.170;7.538;2024-01-07T08:56:25;232.88;;;216.50;;
56419;SDS011;42323;52.170;7.538;2024-01-07T08:58:51;230.10;;;213.98;;
56419;SDS011;42323;52.170;7.538;2024-01-07T09:01:18;242.70;;;225.32;;
56419;SDS011;42323;52.170;7.538;2024-01-07T09:03:46;246.43;;;228.75;;
56419;SDS011;42323;52.170;7.538;2024-01-07T09:06:13;240.23;;;222.82;;
56419;SDS011;42323;52.170;7.538;2024-01-07T09:08:40;243.02;;;225.77;;
56419;SDS011;42323;52.170;7.538;2024-01-07T09:11:06;241.75;;;224.07;;
56419;SDS011;42323;52.170;7.538;2024-01-07T09:13:33;236.80;;;219.90;;
56419;SDS011;42323;52.170;7.538;2024-01-07T09:16:00;240.95;;;223.60;;
56419;SDS011;42323;52.170;7.538;2024-01-07T09:18:26;236.85;;;220.07;;
56419;SDS011;42323;52.170;7.538;2024-01-07T09:20:53;237.45;;;219.70;;
56419;SDS011;42323;52.170;7.538;2024-01-07T09:23:19;233.93;;;217.45;;
56419;SDS011;42323;52.170;7.538;2024-01-07T09:25:46;232.15;;;215.82;;
56419;SDS011;42323;52.170;7.538;2024-01-07T09:28:12;234.27;;;217.70;;
56419;SDS011;42323;52.170;7.538;2024-01-07T09:30:39;241.25;;;223.50;;
56419;SDS011;42323;52.170;7.538;2024-01-07T09:33:05;240.23;;;223.50;;
56419;SDS011;42323;52.170;7.538;2024-01-07T09:35:32;237.95;;;220.80;;
56419;SDS011;42323;52.170;7.538;2024-01-07T09:37:59;243.27;;;224.65;;
56419;SDS011;42323;52.170;7.538;2024-01-07T09:40:25;236.65;;;219.63;;
56419;SDS011;42323;52.170;7.538;2024-01-07T09:42:52;244.00;;;225.73;;
56419;SDS011;42323;52.170;7.538;2024-01-07T09:45:19;240.48;;;223.40;;
56419;SDS011;42323;52.170;7.538;2024-01-07T09:47:46;236.95;;;219.80;;
56419;SDS011;42323;52.170;7.538;2024-01-07T09:50:13;245.68;;;227.57;;
56419;SDS011;42323;52.170;7.538;2024-01-07T09:52:42;243.77;;;225.68;;
56419;SDS011;42323;52.170;7.538;2024-01-07T09:55:09;241.95;;;224.18;;
56419;SDS011;42323;52.170;7.538;2024-01-07T09:57:36;237.88;;;220.55;;
56419;SDS011;42323;52.170;7.538;2024-01-07T10:00:04;242.90;;;224.80;;
56419;SDS011;42323;52.170;7.538;2024-01-07T10:02:31;238.10;;;220.43;;
56419;SDS011;42323;52.170;7.538;2024-01-07T10:04:58;244.90;;;226.57;;
56419;SDS011;42323;52.170;7.538;2024-01-07T10:07:25;250.98;;;231.98;;
56419;SDS011;42323;52.170;7.538;2024-01-07T10:09:52;275.30;;;254.30;;
56419;SDS011;42323;52.170;7.538;2024-01-07T10:12:22;293.25;;;270.30;;
56419;SDS011;42323;52.170;7.538;2024-01-07T10:14:49;285.30;;;264.55;;
56419;SDS011;42323;52.170;7.538;2024-01-07T10:17:15;284.92;;;263.02;;
56419;SDS011;42323;52.170;7.538;2024-01-07T10:19:45;281.80;;;260.88;;
56419;SDS011;42323;52.170;7.538;2024-01-07T10:22:14;284.83;;;263.23;;
56419;SDS011;42323;52.170;7.538;2024-01-07T10:24:42;280.83;;;259.92;;
56419;SDS011;42323;52.170;7.538;2024-01-07T10:27:12;283.38;;;261.98;;
56419;SDS011;42323;52.170;7.538;2024-01-07T10:29:39;286.70;;;264.75;;
56419;SDS011;42323;52.170;7.538;2024-01-07T10:32:06;311.05;;;267.00;;
56419;SDS011;42323;52.170;7.538;2024-01-07T10:34:35;279.10;;;256.80;;
56419;SDS011;42323;52.170;7.538;2024-01-07T10:37:03;284.38;;;261.77;;
56419;SDS011;42323;52.170;7.538;2024-01-07T10:39:31;279.60;;;257.80;;
56419;SDS011;42323;52.170;7.538;2024-01-07T10:41:57;286.92;;;262.55;;
56419;SDS011;42323;52.170;7.538;2024-01-07T10:44:29;279.92;;;256.92;;
56419;SDS011;42323;52.170;7.538;2024-01-07T10:46:55;275.15;;;252.73;;
56419;SDS011;42323;52.170;7.538;2024-01-07T10:49:23;295.63;;;271.00;;
56419;SDS011;42323;52.170;7.538;2024-01-07T10:52:03;295.48;;;270.77;;
56419;SDS011;42323;52.170;7.538;2024-01-07T10:54:31;289.13;;;264.88;;
56419;SDS011;42323;52.170;7.538;2024-01-07T10:59:45;290.13;;;264.95;;
56419;SDS011;42323;52.170;7.538;2024-01-07T11:02:12;303.88;;;270.30;;
56419;SDS011;42323;52.170;7.538;2024-01-07T11:04:49;292.63;;;265.98;;
56419;SDS011;42323;52.170;7.538;2024-01-07T11:07:29;293.58;;;268.27;;
56419;SDS011;42323;52.170;7.538;2024-01-07T11:12:27;360.92;;;272.58;;
56419;SDS011;42323;52.170;7.538;2024-01-07T11:14:55;300.30;;;271.83;;
56419;SDS011;42323;52.170;7.538;2024-01-07T11:17:44;296.05;;;270.30;;
56419;SDS011;42323;52.170;7.538;2024-01-07T11:20:17;295.45;;;269.88;;
56419;SDS011;42323;52.170;7.538;2024-01-07T11:22:45;297.35;;;271.58;;
56419;SDS011;42323;52.170;7.538;2024-01-07T11:25:32;327.35;;;286.75;;
56419;SDS011;42323;52.170;7.538;2024-01-07T11:28:00;299.30;;;271.92;;
56419;SDS011;42323;52.170;7.538;2024-01-07T11:30:27;291.98;;;267.27;;
56419;SDS011;42323;52.170;7.538;2024-01-07T11:32:57;294.73;;;268.45;;
56419;SDS011;42323;52.170;7.538;2024-01-07T11:38:09;290.13;;;263.70;;
56419;SDS011;42323;52.170;7.538;2024-01-07T11:40:36;278.17;;;249.98;;
56419;SDS011;42323;52.170;7.538;2024-01-07T11:43:03;271.45;;;246.25;;
56419;SDS011;42323;52.170;7.538;2024-01-07T11:45:30;303.98;;;254.20;;
56419;SDS011;42323;52.170;7.538;2024-01-07T11:47:58;320.17;;;262.15;;
56419;SDS011;42323;52.170;7.538;2024-01-07T11:50:24;296.73;;;257.10;;
56419;SDS011;42323;52.170;7.538;2024-01-07T11:52:54;372.42;;;262.23;;
56419;SDS011;42323;52.170;7.538;2024-01-07T11:55:24;285.10;;;254.77;;
56419;SDS011;42323;52.170;7.538;2024-01-07T11:57:50;376.85;;;264.42;;
56419;SDS011;42323;52.170;7.538;2024-01-07T12:00:18;360.88;;;258.33;;
56419;SDS011;42323;52.170;7.538;2024-01-07T12:02:45;351.02;;;259.25;;
56419;SDS011;42323;52.170;7.538;2024-01-07T12:05:12;305.30;;;257.38;;
56419;SDS011;42323;52.170;7.538;2024-01-07T12:07:41;311.85;;;262.20;;
56419;SDS011;42323;52.170;7.538;2024-01-07T12:10:08;423.02;;;269.23;;
56419;SDS011;42323;52.170;7.538;2024-01-07T12:12:39;426.48;;;272.17;;
56419;SDS011;42323;52.170;7.538;2024-01-07T12:15:06;340.13;;;265.77;;
56419;SDS011;42323;52.170;7.538;2024-01-07T12:17:33;349.88;;;266.10;;
56419;SDS011;42323;52.170;7.538;2024-01-07T12:20:00;346.98;;;262.92;;
56419;SDS011;42323;52.170;7.538;2024-01-07T12:22:27;345.63;;;263.83;;
56419;SDS011;42323;52.170;7.538;2024-01-07T12:25:00;369.48;;;269.65;;
56419;SDS011;42323;52.170;7.538;2024-01-07T12:27:27;362.85;;;267.60;;
56419;SDS011;42323;52.170;7.538;2024-01-07T12:29:58;350.23;;;266.02;;
56419;SDS011;42323;52.170;7.538;2024-01-07T12:32:29;335.85;;;252.82;;
56419;SDS011;42323;52.170;7.538;2024-01-07T12:34:59;338.38;;;255.50;;
56419;SDS011;42323;52.170;7.538;2024-01-07T12:37:26;336.83;;;259.80;;
56419;SDS011;42323;52.170;7.538;2024-01-07T12:39:56;388.33;;;260.63;;
56419;SDS011;42323;52.170;7.538;2024-01-07T12:42:23;354.33;;;260.60;;
56419;SDS011;42323;52.170;7.538;2024-01-07T12:44:50;347.23;;;260.55;;
56419;SDS011;42323;52.170;7.538;2024-01-07T12:47:17;366.33;;;263.58;;
56419;SDS011;42323;52.170;7.538;2024-01-07T12:49:43;333.92;;;260.05;;
56419;SDS011;42323;52.170;7.538;2024-01-07T12:52:10;338.63;;;258.65;;
56419;SDS011;42323;52.170;7.538;2024-01-07T12:54:37;331.40;;;261.13;;
56419;SDS011;42323;52.170;7.538;2024-01-07T12:57:04;320.30;;;262.92;;
56419;SDS011;42323;52.170;7.538;2024-01-07T12:59:31;329.95;;;268.02;;
56419;SDS011;42323;52.170;7.538;2024-01-07T13:01:57;349.48;;;272.60;;
56419;SDS011;42323;52.170;7.538;2024-01-07T13:04:24;349.55;;;268.77;;
56419;SDS011;42323;52.170;7.538;2024-01-07T13:06:50;354.92;;;270.20;;
56419;SDS011;42323;52.170;7.538;2024-01-07T13:09:17;378.77;;;277.38;;
56419;SDS011;42323;52.170;7.538;2024-01-07T13:11:43;302.67;;;269.70;;
56419;SDS011;42323;52.170;7.538;2024-01-07T13:14:10;337.95;;;271.73;;
56419;SDS011;42323;52.170;7.538;2024-01-07T13:16:36;367.60;;;269.27;;
56419;SDS011;42323;52.170;7.538;2024-01-07T13:19:03;298.33;;;268.15;;
56419;SDS011;42323;52.170;7.538;2024-01-07T13:21:30;301.70;;;269.77;;
56419;SDS011;42323;52.170;7.538;2024-01-07T13:23:58;412.05;;;273.13;;
56419;SDS011;42323;52.170;7.538;2024-01-07T13:26:26;352.52;;;227.20;;
56419;SDS011;42323;52.170;7.538;2024-01-07T13:28:52;358.98;;;230.85;;
56419;SDS011;42323;52.170;7.538;2024-01-07T13:31:19;348.77;;;228.90;;
56419;SDS011;42323;52.170;7.538;2024-01-07T13:33:46;266.23;;;226.05;;
56419;SDS011;42323;52.170;7.538;2024-01-07T13:36:13;250.60;;;224.85;;
56419;SDS011;42323;52.170;7.538;2024-01-07T13:38:40;245.27;;;220.13;;
56419;SDS011;42323;52.170;7.538;2024-01-07T13:41:10;248.85;;;223.98;;
56419;SDS011;42323;52.170;7.538;2024-01-07T13:43:37;306.50;;;229.70;;
56419;SDS011;42323;52.170;7.538;2024-01-07T13:46:06;248.85;;;222.85;;
56419;SDS011;42323;52.170;7.538;2024-01-07T13:48:33;245.20;;;221.02;;
56419;SDS011;42323;52.170;7.538;2024-01-07T13:51:01;246.10;;;223.38;;
56419;SDS011;42323;52.170;7.538;2024-01-07T13:53:29;240.25;;;218.70;;
56419;SDS011;42323;52.170;7.538;2024-01-07T13:55:55;245.75;;;222.20;;
56419;SDS011;42323;52.170;7.538;2024-01-07T13:58:22;247.73;;;221.73;;
56419;SDS011;42323;52.170;7.538;2024-01-07T14:00:50;243.52;;;220.18;;
56419;SDS011;42323;52.170;7.538;2024-01-07T14:03:18;237.65;;;216.35;;